Time;durP1;ratioP1;P1;durP2;ratioP2;P2;SDS_P1;SDS_P2;PMS_P1;PMS_P2;Temp;Humidity;BMP_temperature;BMP_pressure;BME280_temperature;BME280_humidity;BME280_pressure;Samples;Min_cycle;Max_cycle;Signal;HPM_P1;HPM_P2
2022/01/18 00:00:50;;;;;;;;;31.75;24.75;;;;;7.17;61.60;103094.91;4942050;28;45200;-74
2022/01/18 00:03:16;;;;;;;;;34.25;31.00;;;;;7.34;61.10;103122.78;4941271;28;44925;-73
2022/01/18 00:05:44;;;;;;;;;36.75;33.50;;;;;8.29;61.34;103292.47;4941742;28;46051;-74
2022/01/18 00:08:10;;;;;;;;;33.00;29.25;;;;;7.89;61.50;103235.25;4938515;28;45173;-74
2022/01/18 00:10:36;;;;;;;;;48.00;37.50;;;;;8.70;61.37;103347.09;4943919;28;45066;-74
2022/01/18 00:15:38;;;;;;;;;56.25;45.75;;;;;8.71;61.87;103361.34;4939785;28;45211;-74
2022/01/18 00:18:08;;;;;;;;;56.00;46.25;;;;;8.66;62.31;103367.28;4940726;28;45305;-73
2022/01/18 00:20:57;;;;;;;;;60.25;49.00;;;;;8.34;62.18;103291.91;4935307;28;45129;-73
2022/01/18 00:23:24;;;;;;;;;58.00;48.00;;;;;8.62;62.01;103358.91;4944261;28;45121;-74
2022/01/18 00:25:53;;;;;;;;;67.75;48.75;;;;;8.58;62.41;103364.81;4949401;28;45738;-74
2022/01/18 00:28:22;;;;;;;;;63.00;45.50;;;;;8.20;62.62;103298.81;4945328;28;45210;-74
2022/01/18 00:31:16;;;;;;;;;62.25;47.25;;;;;8.50;61.75;103350.91;4945973;28;45058;-74
2022/01/18 00:33:47;;;;;;;;;60.50;46.50;;;;;8.47;61.96;103369.31;4947488;28;45099;-73
2022/01/18 00:38:55;;;;;;;;;64.75;49.00;;;;;8.45;61.82;103336.31;4947373;28;44953;-73
2022/01/18 00:41:23;;;;;;;;;60.25;48.50;;;;;8.21;62.04;103311.34;4939120;28;45435;-73
2022/01/18 00:43:50;;;;;;;;;64.75;52.50;;;;;8.42;62.50;103358.28;4950813;28;45170;-72
2022/01/18 00:46:15;;;;;;;;;60.75;46.75;;;;;8.14;62.08;103288.63;4949629;28;45629;-72
2022/01/18 00:48:42;;;;;;;;;55.75;46.25;;;;;8.32;62.21;103328.16;4939918;28;45434;-73
2022/01/18 00:51:13;;;;;;;;;66.25;51.00;;;;;8.18;62.61;103313.75;4932985;28;44970;-74
2022/01/18 00:53:40;;;;;;;;;70.25;50.00;;;;;8.32;62.57;103357.47;4940960;28;45240;-72
2022/01/18 00:58:35;;;;;;;;;68.25;49.25;;;;;8.29;61.96;103340.41;4928653;28;45421;-73
2022/01/18 01:01:00;;;;;;;;;57.25;45.00;;;;;7.84;62.89;103272.13;4929563;28;45530;-74
2022/01/18 01:03:25;;;;;;;;;62.75;47.00;;;;;7.57;62.19;103223.94;4924747;28;45642;-73
2022/01/18 01:05:51;;;;;;;;;59.00;45.50;;;;;7.97;61.86;103289.06;4935181;28;45922;-73
2022/01/18 01:08:16;;;;;;;;;63.00;49.00;;;;;8.22;62.12;103335.44;4931461;28;45418;-73
2022/01/18 01:10:42;;;;;;;;;58.00;45.00;;;;;8.07;62.71;103312.94;4926723;28;45408;-74
2022/01/18 01:13:08;;;;;;;;;64.50;49.75;;;;;8.00;61.39;103318.56;4931414;28;45809;-73
2022/01/18 01:15:42;;;;;;;;;60.75;44.75;;;;;8.12;62.33;103347.09;4937054;28;46654;-72
2022/01/18 01:45:05;;;;;;;;;38.00;33.00;;;;;7.56;62.65;103288.59;4943116;28;45600;-72
2022/01/18 01:47:35;;;;;;;;;36.75;31.25;;;;;7.76;62.53;103339.81;4931587;28;47594;-73
2022/01/18 01:50:06;;;;;;;;;49.50;31.00;;;;;7.79;62.56;103355.06;4937426;28;44934;-73
2022/01/18 01:52:32;;;;;;;;;33.00;27.50;;;;;7.67;63.39;103321.38;4934767;28;45222;-72
2022/01/18 01:54:57;;;;;;;;;29.25;24.50;;;;;7.44;63.03;103281.34;4941183;28;45131;-74
2022/01/18 01:57:26;;;;;;;;;31.00;27.00;;;;;7.72;62.85;103337.69;4920065;28;46400;-73
2022/01/18 01:59:51;;;;;;;;;41.50;30.25;;;;;7.79;62.56;103339.09;4933889;28;45187;-74
2022/01/18 02:02:17;;;;;;;;;36.25;30.00;;;;;7.71;63.06;103349.16;4936660;28;45142;-73
2022/01/18 02:04:42;;;;;;;;;38.25;31.75;;;;;7.64;63.39;103362.75;4932628;28;45258;-74
2022/01/18 02:07:08;;;;;;;;;39.25;35.00;;;;;7.59;63.65;103350.81;4934729;28;45598;-72
2022/01/18 02:09:33;;;;;;;;;34.25;22.00;;;;;7.56;64.06;103357.75;4938171;28;45186;-73
2022/01/18 02:12:00;;;;;;;;;29.75;24.50;;;;;7.38;63.65;103335.91;4938537;28;45317;-73
2022/01/18 02:14:27;;;;;;;;;31.75;27.75;;;;;7.46;63.38;103341.88;4945031;28;45417;-74
2022/01/18 02:22:22;;;;;;;;;26.00;18.25;;;;;7.47;63.32;103358.75;4936052;28;45009;-75
2022/01/18 02:24:48;;;;;;;;;25.75;20.75;;;;;7.24;63.96;103315.25;4932238;28;45697;-73
2022/01/18 02:27:13;;;;;;;;;27.50;19.00;;;;;7.17;63.65;103308.50;4935873;28;46262;-74
2022/01/18 02:29:39;;;;;;;;;23.25;16.75;;;;;7.39;63.67;103347.47;4941017;28;45155;-73
2022/01/18 02:32:05;;;;;;;;;22.00;18.75;;;;;7.31;63.87;103324.66;4941824;28;45214;-75
2022/01/18 02:34:31;;;;;;;;;25.50;21.75;;;;;7.41;64.09;103351.22;4939925;28;45166;-74
2022/01/18 02:36:57;;;;;;;;;29.00;22.50;;;;;7.37;63.58;103341.09;4945821;28;45472;-74
2022/01/18 02:39:25;;;;;;;;;25.75;18.50;;;;;7.20;63.87;103319.38;4941279;28;44992;-74
2022/01/18 02:41:52;;;;;;;;;27.00;20.75;;;;;7.44;63.42;103346.13;4948018;28;45186;-74
2022/01/18 02:44:18;;;;;;;;;29.50;22.25;;;;;7.13;63.59;103295.78;4935454;28;45464;-73
2022/01/18 02:46:43;;;;;;;;;33.25;19.25;;;;;7.17;63.35;103313.81;4919691;28;46020;-74
2022/01/18 02:49:09;;;;;;;;;22.50;20.75;;;;;6.97;63.70;103290.00;4919087;28;44980;-73
2022/01/18 02:51:35;;;;;;;;;26.00;21.00;;;;;7.12;63.76;103343.50;4918827;28;45704;-74
2022/01/18 02:54:06;;;;;;;;;22.75;20.75;;;;;6.96;64.12;103310.34;4946175;28;44889;-74
2022/01/18 02:56:36;;;;;;;;;25.25;20.25;;;;;7.19;64.12;103357.44;4938507;28;45683;-73
2022/01/18 02:59:31;;;;;;;;;23.25;20.50;;;;;7.16;64.29;103362.50;4944246;28;45101;-73
2022/01/18 03:04:43;;;;;;;;;28.25;19.75;;;;;6.74;64.44;103269.53;4935584;28;45356;-73
2022/01/18 03:07:09;;;;;;;;;25.00;18.25;;;;;6.87;64.32;103268.81;4927800;28;45332;-73
2022/01/18 03:09:35;;;;;;;;;29.00;24.75;;;;;7.05;63.59;103303.94;4936523;28;45355;-75
2022/01/18 03:12:01;;;;;;;;;28.25;22.00;;;;;7.19;64.17;103327.25;4942581;28;45618;-74
2022/01/18 03:14:27;;;;;;;;;19.25;17.25;;;;;6.37;64.28;103174.44;4943686;28;45914;-74
2022/01/18 03:16:52;;;;;;;;;41.50;23.25;;;;;7.12;64.35;103291.25;4917121;28;47086;-73
2022/01/18 03:19:18;;;;;;;;;21.00;17.00;;;;;7.22;63.93;103300.00;4933709;28;45350;-73
2022/01/18 03:21:43;;;;;;;;;20.00;15.00;;;;;7.18;64.25;103270.47;4921670;28;45406;-73
2022/01/18 03:24:21;;;;;;;;;22.25;18.50;;;;;7.41;63.38;103295.34;4928558;28;45377;-74
2022/01/18 03:29:30;;;;;;;;;21.75;16.75;;;;;7.34;63.51;103299.25;4927373;28;45386;-74
2022/01/18 03:31:56;;;;;;;;;22.75;19.25;;;;;7.06;63.61;103248.25;4943394;28;44957;-72
2022/01/18 03:34:22;;;;;;;;;25.00;21.00;;;;;7.17;63.65;103262.38;4921699;28;45206;-74
2022/01/18 03:36:48;;;;;;;;;18.75;17.25;;;;;7.35;63.85;103308.16;4919543;28;47452;-73
2022/01/18 03:39:14;;;;;;;;;21.25;16.75;;;;;7.30;63.65;103297.13;4938991;28;45090;-74
2022/01/18 03:41:39;;;;;;;;;22.00;21.25;;;;;7.30;63.79;103274.94;4938733;28;45119;-74
2022/01/18 03:44:05;;;;;;;;;23.00;18.75;;;;;7.41;63.58;103302.38;4940344;28;45055;-73
2022/01/18 03:46:36;;;;;;;;;19.75;17.25;;;;;7.38;63.71;103303.09;4940605;28;45615;-73
2022/01/18 03:49:02;;;;;;;;;15.50;12.50;;;;;7.40;63.39;103298.81;4942831;28;45311;-73
2022/01/18 03:51:27;;;;;;;;;14.00;14.00;;;;;7.17;62.77;103259.72;4940125;28;45031;-74
2022/01/18 03:53:52;;;;;;;;;14.50;13.50;;;;;7.40;63.47;103304.13;4922373;28;45107;-73
2022/01/18 03:56:18;;;;;;;;;25.50;15.50;;;;;7.22;63.23;103262.75;4945066;28;45322;-73
2022/01/18 03:58:43;;;;;;;;;22.00;16.25;;;;;7.39;63.22;103302.25;4948989;28;45375;-74
2022/01/18 04:01:08;;;;;;;;;20.00;15.25;;;;;7.37;63.21;103306.53;4940669;28;45090;-73
2022/01/18 04:03:34;;;;;;;;;22.50;15.25;;;;;6.99;63.09;103235.25;4938878;28;44981;-74
2022/01/18 04:05:59;;;;;;;;;20.00;17.50;;;;;7.33;63.57;103299.13;4933336;28;45362;-73
2022/01/18 04:08:25;;;;;;;;;24.25;17.75;;;;;7.05;63.64;103246.38;4935015;28;45237;-72
2022/01/18 04:10:51;;;;;;;;;19.00;16.25;;;;;7.41;63.60;103294.41;4939859;28;45103;-74
2022/01/18 04:13:16;;;;;;;;;25.00;20.75;;;;;7.41;63.25;103298.00;4938558;28;45241;-73
2022/01/18 04:15:43;;;;;;;;;22.75;18.75;;;;;7.41;63.27;103297.06;4941523;28;45553;-74
2022/01/18 04:18:44;;;;;;;;;17.00;16.00;;;;;7.32;63.15;103265.34;4936136;28;45273;-73
2022/01/18 04:29:03;;;;;;;;;34.25;24.00;;;;;7.16;63.21;103232.22;4937531;28;45140;-74
2022/01/18 04:31:29;;;;;;;;;29.25;20.25;;;;;7.44;64.10;103284.97;4929936;28;45173;-74
2022/01/18 04:33:56;;;;;;;;;27.00;20.75;;;;;7.32;63.31;103276.91;4935137;28;45128;-73
2022/01/18 04:36:22;;;;;;;;;22.75;18.75;;;;;7.26;63.21;103256.88;4942526;28;45827;-75
2022/01/18 04:38:48;;;;;;;;;25.00;20.75;;;;;7.36;63.65;103294.06;4939139;28;45460;-74
2022/01/18 04:41:17;;;;;;;;;27.25;23.50;;;;;6.99;63.60;103224.59;4932937;28;45725;-74
2022/01/18 04:49:03;;;;;;;;;31.50;25.25;;;;;7.42;63.40;103282.97;4936610;28;45452;-74
2022/01/18 04:51:29;;;;;;;;;22.75;17.25;;;;;7.10;63.94;103229.06;4918815;28;45311;-74
2022/01/18 04:53:57;;;;;;;;;26.00;25.50;;;;;7.47;63.90;103282.53;4934305;28;45333;-74
2022/01/18 04:59:15;;;;;;;;;29.00;20.50;;;;;7.37;63.40;103254.28;4910463;28;44792;-75
2022/01/18 05:01:46;;;;;;;;;28.75;27.50;;;;;7.46;64.10;103277.09;4949124;28;45025;-73
2022/01/18 05:04:12;;;;;;;;;29.50;26.75;;;;;7.08;64.04;103216.44;4924309;28;45296;-74
2022/01/18 05:06:38;;;;;;;;;33.75;25.75;;;;;7.38;63.92;103272.09;4918796;28;47015;-74
2022/01/18 05:09:09;;;;;;;;;36.00;25.25;;;;;7.27;63.84;103250.75;4935568;28;45445;-73
2022/01/18 05:11:43;;;;;;;;;29.50;24.75;;;;;7.50;64.16;103285.44;4938428;28;45107;-74
2022/01/18 05:14:27;;;;;;;;;30.50;24.00;;;;;7.43;63.97;103275.13;4933897;28;45287;-73
2022/01/18 05:17:03;;;;;;;;;30.75;19.75;;;;;7.50;64.07;103288.09;4928141;28;47386;-73
2022/01/18 05:19:55;;;;;;;;;39.25;28.00;;;;;7.17;63.79;103244.69;4924037;28;45448;-73
2022/01/18 05:25:05;;;;;;;;;30.00;27.25;;;;;7.08;64.72;103233.34;4933122;28;45074;-73
2022/01/18 05:27:31;;;;;;;;;34.50;24.00;;;;;6.86;64.39;103203.16;4931866;28;45202;-73
2022/01/18 05:29:57;;;;;;;;;27.25;22.25;;;;;7.05;64.71;103227.78;4937908;28;45338;-73
2022/01/18 05:32:22;;;;;;;;;26.75;23.50;;;;;7.02;64.22;103216.88;4940185;28;45231;-75
2022/01/18 05:34:48;;;;;;;;;22.00;17.50;;;;;7.33;63.90;103277.84;4940550;28;45121;-73
2022/01/18 05:37:14;;;;;;;;;27.50;21.25;;;;;7.17;63.79;103250.00;4939478;28;46031;-73
2022/01/18 05:39:39;;;;;;;;;28.50;22.75;;;;;7.20;63.66;103254.66;4931974;28;45044;-74
2022/01/18 05:42:05;;;;;;;;;24.25;19.75;;;;;7.37;63.63;103271.97;4937714;28;45292;-73
2022/01/18 05:44:30;;;;;;;;;20.25;19.75;;;;;7.32;64.03;103270.66;4941302;28;45369;-73
2022/01/18 05:46:56;;;;;;;;;27.00;19.75;;;;;7.12;63.54;103239.81;4940757;28;45193;-75
2022/01/18 05:49:21;;;;;;;;;24.75;17.25;;;;;6.58;63.83;103153.09;4932421;28;44805;-73
2022/01/18 05:51:47;;;;;;;;;23.00;19.25;;;;;6.79;63.74;103188.44;4935582;28;45227;-74
2022/01/18 05:54:12;;;;;;;;;23.50;17.75;;;;;6.97;64.03;103243.09;4930734;28;45089;-73
2022/01/18 05:56:38;;;;;;;;;22.50;20.25;;;;;6.83;64.56;103233.09;4925425;28;45752;-74
2022/01/18 05:59:05;;;;;;;;;23.25;18.75;;;;;7.08;64.31;103265.25;4929869;28;45446;-73
2022/01/18 06:01:34;;;;;;;;;16.75;14.00;;;;;6.75;64.69;103220.91;4936288;28;45012;-74
2022/01/18 06:09:13;;;;;;;;;26.00;20.50;;;;;6.80;64.13;103255.00;4924600;28;45356;-74
2022/01/18 06:11:40;;;;;;;;;26.75;22.50;;;;;6.45;64.66;103202.56;4942451;28;45236;-73
2022/01/18 06:14:05;;;;;;;;;21.75;18.50;;;;;6.87;65.24;103285.66;4919077;28;45131;-74
2022/01/18 06:16:31;;;;;;;;;27.00;19.25;;;;;6.80;65.03;103262.06;4939140;28;45695;-72
2022/01/18 06:18:57;;;;;;;;;22.50;19.75;;;;;6.90;64.80;103288.56;4930494;28;45449;-75
2022/01/18 06:21:22;;;;;;;;;25.25;23.50;;;;;6.91;64.69;103281.53;4935976;28;44911;-74
2022/01/18 06:23:47;;;;;;;;;25.25;20.25;;;;;6.93;64.86;103287.88;4932437;28;45255;-74
2022/01/18 06:26:16;;;;;;;;;26.00;19.25;;;;;6.95;64.48;103288.97;4933804;28;45585;-74
2022/01/18 06:28:43;;;;;;;;;32.25;25.25;;;;;6.55;64.58;103224.56;4922280;28;45292;-74
2022/01/18 06:31:08;;;;;;;;;33.00;21.00;;;;;7.04;64.42;103289.69;4942459;28;45140;-73
2022/01/18 06:33:34;;;;;;;;;32.25;25.25;;;;;6.98;64.12;103279.50;4941058;28;45445;-74
2022/01/18 06:35:59;;;;;;;;;21.50;19.25;;;;;7.10;64.46;103287.53;4931849;28;45762;-74
2022/01/18 06:38:25;;;;;;;;;22.25;22.00;;;;;6.89;64.45;103262.78;4915395;28;45609;-74
2022/01/18 06:40:50;;;;;;;;;32.75;24.25;;;;;7.00;64.51;103261.03;4937921;28;45387;-74
2022/01/18 06:43:16;;;;;;;;;27.00;22.00;;;;;6.89;63.84;103246.84;4942258;28;45142;-75
2022/01/18 06:45:42;;;;;;;;;28.50;22.50;;;;;7.20;63.87;103298.13;4927474;28;46786;-74
2022/01/18 06:48:07;;;;;;;;;33.00;21.50;;;;;6.62;63.54;103195.97;4941196;28;45965;-73
2022/01/18 06:50:34;;;;;;;;;33.25;25.25;;;;;7.05;63.63;103272.97;4946446;28;45181;-73
2022/01/18 06:53:00;;;;;;;;;28.50;24.00;;;;;6.77;63.46;103265.38;4927761;28;45330;-75
2022/01/18 06:55:26;;;;;;;;;24.50;23.00;;;;;6.61;63.99;103210.03;4950256;28;46414;-74
2022/01/18 06:57:53;;;;;;;;;24.50;23.25;;;;;6.64;64.35;103238.59;4940243;28;45059;-73
2022/01/18 07:00:18;;;;;;;;;21.75;19.75;;;;;7.00;63.59;103292.94;4948191;28;44791;-73
2022/01/18 07:02:44;;;;;;;;;32.75;30.50;;;;;7.00;63.78;103291.19;4933805;28;45552;-73
2022/01/18 07:05:11;;;;;;;;;28.75;24.25;;;;;6.55;64.15;103200.66;4942823;28;45471;-74
2022/01/18 07:07:37;;;;;;;;;23.75;19.75;;;;;6.64;63.89;103220.00;4935956;28;45057;-72
2022/01/18 07:10:03;;;;;;;;;28.00;21.75;;;;;5.87;64.37;103094.16;4936828;28;44994;-74
2022/01/18 07:12:33;;;;;;;;;40.25;28.75;;;;;6.96;63.90;103264.22;4944420;28;45210;-74
2022/01/18 07:14:59;;;;;;;;;24.00;20.25;;;;;7.06;63.91;103281.84;4945623;28;45113;-74
2022/01/18 07:17:24;;;;;;;;;33.00;24.00;;;;;7.10;63.90;103283.97;4926639;28;45201;-74
2022/01/18 07:19:49;;;;;;;;;27.00;17.50;;;;;6.15;64.46;103126.59;4935733;28;45695;-73
2022/01/18 07:22:15;;;;;;;;;25.75;20.50;;;;;7.00;64.08;103280.56;4936954;28;45119;-73
2022/01/18 07:24:43;;;;;;;;;26.00;24.00;;;;;7.09;64.20;103277.69;4932849;28;46954;-73
2022/01/18 07:27:11;;;;;;;;;23.00;16.00;;;;;7.12;63.81;103279.69;4941938;28;45179;-73
2022/01/18 07:29:38;;;;;;;;;26.75;18.50;;;;;6.90;63.70;103231.84;4943481;28;45622;-72
2022/01/18 07:32:04;;;;;;;;;18.50;16.50;;;;;7.17;63.93;103273.94;4940794;28;45420;-73
2022/01/18 07:34:34;;;;;;;;;24.25;18.25;;;;;7.19;64.23;103268.75;4939024;28;45350;-73
2022/01/18 07:37:00;;;;;;;;;25.75;20.50;;;;;7.19;63.80;103274.06;4941967;28;45173;-73
2022/01/18 07:39:25;;;;;;;;;21.25;17.50;;;;;7.15;64.54;103271.97;4941076;28;44876;-73
2022/01/18 07:41:50;;;;;;;;;27.00;21.25;;;;;7.18;64.17;103262.50;4935044;28;45710;-74
2022/01/18 07:44:16;;;;;;;;;26.25;20.25;;;;;6.89;64.25;103214.97;4943400;28;45059;-74
2022/01/18 07:46:41;;;;;;;;;30.00;22.50;;;;;7.05;63.90;103251.69;4951944;28;45131;-74
2022/01/18 07:49:07;;;;;;;;;23.75;20.50;;;;;7.05;64.24;103253.44;4949419;28;45336;-74
2022/01/18 07:51:32;;;;;;;;;29.00;20.25;;;;;5.82;64.38;103051.34;4943525;28;45222;-74
2022/01/18 07:53:58;;;;;;;;;27.50;21.50;;;;;6.69;64.13;103200.06;4938730;28;45688;-75
2022/01/18 07:56:23;;;;;;;;;24.00;19.75;;;;;7.09;64.60;103282.09;4936375;28;44982;-75
2022/01/18 07:58:48;;;;;;;;;26.25;22.00;;;;;5.10;64.43;102924.34;4939228;28;45200;-77
2022/01/18 08:01:14;;;;;;;;;27.25;24.25;;;;;6.91;64.82;103242.56;4909459;28;45463;-74
2022/01/18 08:03:39;;;;;;;;;27.50;20.50;;;;;6.33;64.68;103147.53;4924613;28;45399;-74
2022/01/18 08:06:05;;;;;;;;;31.00;25.50;;;;;6.93;64.59;103234.72;4928505;28;45537;-74
2022/01/18 08:08:32;;;;;;;;;25.75;22.50;;;;;5.79;64.27;103063.41;4913860;28;45495;-77
2022/01/18 08:10:57;;;;;;;;;21.00;20.00;;;;;6.74;64.96;103189.81;4924966;28;45397;-74
2022/01/18 08:13:28;;;;;;;;;25.25;23.00;;;;;6.24;64.86;103073.38;4924118;28;45450;-75
2022/01/18 08:16:09;;;;;;;;;20.75;18.75;;;;;6.99;65.03;103240.56;4932352;28;45675;-75
2022/01/18 08:18:34;;;;;;;;;26.00;21.00;;;;;6.97;64.42;103183.69;4934928;28;45598;-76
2022/01/18 08:20:59;;;;;;;;;29.25;21.00;;;;;7.43;63.72;103243.19;4933271;28;45491;-74
2022/01/18 08:23:25;;;;;;;;;40.75;30.00;;;;;6.80;63.96;103126.56;4923598;28;46100;-73
2022/01/18 08:25:50;;;;;;;;;17.25;15.75;;;;;6.91;63.77;103140.69;4931742;28;45498;-74
2022/01/18 08:28:16;;;;;;;;;19.25;15.75;;;;;7.20;63.84;103189.09;4933042;28;45294;-76
2022/01/18 08:30:41;;;;;;;;;27.75;20.50;;;;;7.62;63.93;103258.88;4909489;28;45355;-74
2022/01/18 08:33:06;;;;;;;;;28.00;18.50;;;;;7.62;63.63;103265.94;4925188;28;45660;-75
2022/01/18 08:35:32;;;;;;;;;37.25;29.25;;;;;7.27;64.01;103201.16;4932497;28;45483;-76
2022/01/18 08:37:58;;;;;;;;;30.75;20.75;;;;;7.65;63.33;103253.78;4929070;28;45465;-76
2022/01/18 08:40:23;;;;;;;;;26.00;22.75;;;;;7.61;63.13;103237.50;4927534;28;45656;-75
2022/01/18 08:42:48;;;;;;;;;25.25;20.50;;;;;7.46;63.72;103214.19;4928949;28;46770;-75
2022/01/18 08:45:14;;;;;;;;;26.75;21.00;;;;;7.73;63.52;103262.38;4929181;28;45514;-75
2022/01/18 08:47:39;;;;;;;;;21.75;20.50;;;;;7.79;63.77;103259.25;4928597;28;45468;-75
2022/01/18 08:50:06;;;;;;;;;27.75;23.00;;;;;7.82;63.73;103252.47;4925318;28;45426;-74
2022/01/18 08:52:31;;;;;;;;;28.00;23.00;;;;;7.85;63.23;103251.75;4929694;28;45580;-75
2022/01/18 08:54:57;;;;;;;;;25.25;21.75;;;;;7.60;63.12;103204.63;4931816;28;45739;-77
2022/01/18 08:57:22;;;;;;;;;29.00;24.00;;;;;7.80;63.12;103243.41;4935452;28;45635;-78
2022/01/18 08:59:49;;;;;;;;;22.25;19.75;;;;;7.85;63.07;103247.41;4925369;28;45648;-77
2022/01/18 09:02:16;;;;;;;;;51.75;36.75;;;;;7.64;63.69;103192.47;4925707;28;46257;-77
2022/01/18 09:04:42;;;;;;;;;31.25;26.00;;;;;6.67;63.87;103042.28;4929646;28;45532;-77
2022/01/18 09:07:09;;;;;;;;;20.75;18.50;;;;;7.84;63.86;103220.66;4934941;28;45522;-76
2022/01/18 09:09:38;;;;;;;;;35.75;30.25;;;;;8.09;63.37;103255.41;4931334;28;45469;-76
2022/01/18 09:12:03;;;;;;;;;36.00;27.25;;;;;8.15;63.14;103252.28;4922804;28;45367;-77
2022/01/18 09:14:29;;;;;;;;;31.00;26.75;;;;;7.84;63.47;103188.72;4925577;28;45568;-76
2022/01/18 09:16:55;;;;;;;;;28.00;22.00;;;;;8.14;63.20;103237.13;4907858;28;45501;-77
2022/01/18 09:19:21;;;;;;;;;25.00;17.75;;;;;8.21;62.42;103255.41;4935493;28;45493;-75
2022/01/18 09:21:48;;;;;;;;;26.25;24.50;;;;;8.23;63.21;103254.75;4925143;28;45487;-76
2022/01/18 09:24:15;;;;;;;;;24.50;21.75;;;;;7.86;62.87;103177.38;4932171;28;45452;-75
2022/01/18 09:26:41;;;;;;;;;26.50;24.75;;;;;8.32;63.12;103258.91;4931672;28;45398;-76
2022/01/18 09:29:09;;;;;;;;;25.00;23.00;;;;;8.30;62.75;103248.13;4935092;28;45600;-76
2022/01/18 09:31:36;;;;;;;;;33.50;27.00;;;;;8.33;63.13;103255.41;4924595;28;45992;-76
2022/01/18 09:34:02;;;;;;;;;33.75;24.00;;;;;7.28;63.25;103061.19;4927454;28;45458;-75
2022/01/18 09:36:27;;;;;;;;;25.75;22.50;;;;;7.15;62.81;103052.25;4929444;28;45459;-76
2022/01/18 09:38:53;;;;;;;;;32.50;28.50;;;;;8.14;63.03;103210.50;4931014;28;45650;-76
2022/01/18 09:41:20;;;;;;;;;29.25;23.50;;;;;8.17;63.87;103200.09;4934316;28;46524;-75
2022/01/18 09:43:46;;;;;;;;;44.00;33.00;;;;;7.69;63.00;103119.28;4928363;28;45599;-75
2022/01/18 09:46:11;;;;;;;;;30.25;23.25;;;;;8.42;63.76;103248.13;4925913;28;45653;-76
2022/01/18 09:48:37;;;;;;;;;28.75;25.75;;;;;8.27;63.22;103218.59;4928117;28;45486;-75
2022/01/18 09:51:03;;;;;;;;;38.50;27.25;;;;;8.45;63.56;103262.63;4927015;28;45684;-75
2022/01/18 09:53:28;;;;;;;;;38.50;26.50;;;;;8.49;64.27;103247.81;4928987;28;45529;-75
2022/01/18 09:55:54;;;;;;;;;34.00;29.50;;;;;7.95;63.44;103147.84;4923278;28;45730;-76
2022/01/18 09:58:20;;;;;;;;;23.00;21.75;;;;;8.39;63.77;103219.50;4928804;28;45742;-75
2022/01/18 10:00:48;;;;;;;;;32.75;25.75;;;;;8.36;63.88;103221.03;4926763;28;46208;-77
2022/01/18 10:03:26;;;;;;;;;50.00;30.75;;;;;8.34;63.93;103212.00;4929931;28;45511;-74
2022/01/18 10:05:56;;;;;;;;;31.00;25.25;;;;;8.25;63.86;103185.56;4930395;28;45461;-74
2022/01/18 10:08:22;;;;;;;;;20.75;18.25;;;;;8.62;64.33;103236.34;4931801;28;45499;-75
2022/01/18 10:10:53;;;;;;;;;33.75;22.50;;;;;8.74;64.37;103245.22;4931874;28;45645;-72
2022/01/18 10:13:23;;;;;;;;;37.00;24.25;;;;;8.83;64.15;103245.00;4934356;28;45521;-75
2022/01/18 10:16:07;;;;;;;;;27.25;25.00;;;;;8.90;64.15;103238.38;4918169;28;45535;-76
2022/01/18 10:18:55;;;;;;;;;34.00;27.25;;;;;8.11;63.77;103108.25;4935567;28;45666;-78
2022/01/18 10:21:29;;;;;;;;;36.25;27.25;;;;;8.98;63.23;103242.53;4930888;28;45571;-75
2022/01/18 10:24:25;;;;;;;;;38.50;29.00;;;;;9.01;63.69;103229.44;4926878;28;45391;-77
2022/01/18 10:26:53;;;;;;;;;28.00;26.00;;;;;8.02;64.24;103061.38;4930999;28;45405;-77
2022/01/18 10:29:25;;;;;;;;;37.50;23.75;;;;;8.43;63.20;103100.81;4922923;28;45485;-76
2022/01/18 10:34:27;;;;;;;;;31.75;27.00;;;;;9.05;63.20;103180.81;4932517;28;45515;-76
2022/01/18 10:37:07;;;;;;;;;27.25;22.75;;;;;9.06;63.25;103158.69;4930303;28;45520;-76
2022/01/18 10:39:35;;;;;;;;;36.25;27.50;;;;;8.16;63.09;103007.41;4930436;28;45464;-76
2022/01/18 10:42:14;;;;;;;;;27.75;22.75;;;;;9.28;62.82;103157.53;4922123;28;47274;-76
2022/01/18 10:44:40;;;;;;;;;37.75;29.25;;;;;8.18;62.51;102946.28;4926507;28;45680;-77
2022/01/18 10:47:05;;;;;;;;;34.50;29.00;;;;;9.43;62.90;103157.69;4928296;28;46466;-75
2022/01/18 10:49:46;;;;;;;;;44.00;28.75;;;;;9.75;62.61;103190.19;4930639;28;45668;-76
2022/01/18 10:52:15;;;;;;;;;34.50;26.50;;;;;9.39;62.41;103111.19;4927612;28;47241;-77
2022/01/18 10:54:49;;;;;;;;;25.00;17.75;;;;;9.89;61.98;103179.53;4927840;28;45614;-79
2022/01/18 10:57:21;;;;;;;;;34.50;31.75;;;;;8.98;62.31;102997.25;4929885;28;45676;-76
2022/01/18 10:59:48;;;;;;;;;36.75;33.25;;;;;9.98;61.50;103147.19;4924214;28;45600;-77
2022/01/18 11:02:15;;;;;;;;;36.75;31.50;;;;;9.88;61.04;103118.94;4925165;28;46325;-77
2022/01/18 11:04:49;;;;;;;;;30.00;26.25;;;;;9.07;61.32;102963.19;4928401;28;45493;-76
2022/01/18 11:07:25;;;;;;;;;31.75;26.50;;;;;10.12;61.27;103131.25;4932197;28;45523;-77
2022/01/18 11:09:51;;;;;;;;;44.00;32.75;;;;;9.43;61.36;103017.19;4925132;28;45574;-78
2022/01/18 11:12:20;;;;;;;;;56.75;45.25;;;;;9.25;60.18;102939.50;4931712;28;46208;-78
2022/01/18 11:14:51;;;;;;;;;25.50;23.50;;;;;9.53;60.44;103029.41;4930388;28;45596;-76
2022/01/18 11:17:23;;;;;;;;;24.25;22.00;;;;;8.64;60.13;102811.91;4929358;28;45478;-78
2022/01/18 11:19:51;;;;;;;;;24.50;23.75;;;;;10.54;60.02;103155.38;4925591;28;45531;-77
2022/01/18 11:22:17;;;;;;;;;35.50;23.75;;;;;9.43;59.76;102945.16;4928350;28;45513;-75
2022/01/18 11:24:44;;;;;;;;;32.25;24.00;;;;;9.26;59.04;102877.34;4931326;28;45393;-75
2022/01/18 11:27:14;;;;;;;;;37.75;24.25;;;;;10.65;58.78;103114.25;4931801;28;45481;-75
2022/01/18 11:29:41;;;;;;;;;26.00;21.50;;;;;10.69;59.20;103116.31;4940029;28;45517;-76
2022/01/18 11:32:09;;;;;;;;;27.00;22.50;;;;;10.24;59.14;103023.38;4936623;28;46100;-77
2022/01/18 11:34:50;;;;;;;;;26.25;20.00;;;;;10.80;58.05;103110.72;4922192;28;45462;-77
2022/01/18 11:37:38;;;;;;;;;44.00;35.00;;;;;10.89;58.18;103081.88;4923576;28;45453;-77
2022/01/18 11:40:10;;;;;;;;;22.00;15.75;;;;;9.99;57.29;102909.63;4925040;28;45483;-74
2022/01/18 11:42:46;;;;;;;;;28.25;21.00;;;;;10.84;57.88;103051.25;4929013;28;45508;-75
2022/01/18 11:45:33;;;;;;;;;23.75;17.50;;;;;10.98;57.39;103065.47;4937990;28;45477;-75
2022/01/18 11:48:06;;;;;;;;;21.00;16.25;;;;;11.06;56.79;103074.91;4948578;28;45109;-74
2022/01/18 11:50:38;;;;;;;;;29.25;21.75;;;;;11.11;57.05;103075.19;4938333;28;45702;-75
2022/01/18 11:53:23;;;;;;;;;35.25;32.50;;;;;10.81;57.13;102997.59;4941372;28;45306;-74
2022/01/18 11:55:49;;;;;;;;;21.25;15.25;;;;;10.85;56.19;102999.59;4946042;28;45160;-74
2022/01/18 11:58:15;;;;;;;;;17.75;16.00;;;;;10.78;55.90;102966.22;4948234;28;45141;-74
2022/01/18 12:00:55;;;;;;;;;17.50;16.00;;;;;10.81;54.97;102981.53;4944996;28;45051;-74
2022/01/18 12:03:32;;;;;;;;;15.50;13.50;;;;;11.26;55.73;103038.66;4944312;28;45644;-76
2022/01/18 12:06:03;;;;;;;;;17.50;17.50;;;;;11.38;54.82;103035.78;4931721;28;45667;-73
2022/01/18 12:08:34;;;;;;;;;27.50;16.75;;;;;11.43;55.83;103039.66;4923492;28;45607;-73
2022/01/18 12:11:03;;;;;;;;;18.50;14.25;;;;;11.50;55.55;103040.94;4916993;28;45385;-74
2022/01/18 12:13:32;;;;;;;;;19.25;15.50;;;;;10.75;55.39;102879.56;4929419;28;46663;-75
2022/01/18 12:15:59;;;;;;;;;15.75;13.25;;;;;11.64;54.64;103015.00;4927968;28;44716;-73
2022/01/18 12:18:27;;;;;;;;;15.25;11.25;;;;;11.68;54.38;103025.03;4930611;28;45644;-72
2022/01/18 12:20:59;;;;;;;;;18.25;14.25;;;;;11.51;53.51;102984.81;4914067;28;45651;-73
2022/01/18 12:23:39;;;;;;;;;10.75;10.50;;;;;11.72;54.43;103019.97;4929073;28;45538;-73
2022/01/18 12:26:29;;;;;;;;;10.75;10.25;;;;;11.76;54.34;103010.34;4921530;28;46330;-74
2022/01/18 12:34:28;;;;;;;;;13.50;12.75;;;;;11.81;52.20;103000.81;4925005;28;45648;-74
2022/01/18 12:37:06;;;;;;;;;18.00;15.75;;;;;11.77;53.16;102993.47;4926422;28;45563;-72
2022/01/18 12:39:50;;;;;;;;;16.25;15.75;;;;;11.81;53.96;102995.47;4925726;28;45681;-73